Napoli Jet — IQTJ — position and weather

sailwx.info

Track history (hours):
 
Tides and Currents Weather Stations Pressure Air Temp Water Temp Dewpoint Dewpoint Depression Visibility Wind Speed Wind Dir Waves Ship Positions

Napoli Jet

Last reported at 2014-Jul-28 17:09 UTC. Time now 2014-Jul-28 22:30 UTC.
Position N 40°38' E 014°23'.

Length 41 m; draft 1.3 m.

Type: Ship. MMSI: 247051400.

Date/timePositionNaut miles runAvg speedWind from/ knotsBaromVisibWave heightAir tempDewpointWater temp
2014-Jul-28 17:09N 40°38' E 014°23'7 4.7
2014-Jul-28 15:33N 40°44' E 014°16'10 9.9
2014-Jul-28 14:34N 40°34' E 014°15'1 0.9
2014-Jul-28 13:33N 40°33' E 014°14'0 0.0
2014-Jul-28 12:33N 40°33' E 014°14'0 0.5
2014-Jul-28 11:33N 40°34' E 014°15'1613.7
2014-Jul-28 10:21N 40°50' E 014°17'1720.8
2014-Jul-28 09:33N 40°33' E 014°14'0 0.0
2014-Jul-28 08:33N 40°33' E 014°14'10 3.2
2014-Jul-28 05:33N 40°42' E 014°21'4 0.3
2014-Jul-27 17:04N 40°38' E 014°23'13 7.6
2014-Jul-27 15:21N 40°50' E 014°17'1721.1
2014-Jul-27 14:33N 40°33' E 014°14'0 0.0
2014-Jul-27 13:33N 40°33' E 014°14'8 7.6
2014-Jul-27 12:33N 40°38' E 014°23'8 7.5
2014-Jul-27 11:33N 40°33' E 014°14'0 0.0
2014-Jul-27 10:34N 40°33' E 014°14'0 0.0
2014-Jul-27 09:33N 40°33' E 014°14'1712.9
2014-Jul-27 08:17N 40°50' E 014°17'1723.0
2014-Jul-27 07:33N 40°33' E 014°14'10 5.0
2014-Jul-27 05:33N 40°42' E 014°20'5 0.4
2014-Jul-26 17:03N 40°38' E 014°23'8 5.4
2014-Jul-26 15:33N 40°44' E 014°17'1110.9
2014-Jul-26 14:33N 40°33' E 014°14'17 7.8
2014-Jul-26 12:24N 40°50' E 014°16'1719.8
2014-Jul-26 11:34N 40°33' E 014°14'0 0.0
2014-Jul-26 10:34N 40°33' E 014°14'0 0.0
2014-Jul-26 09:34N 40°33' E 014°14'1714.8
2014-Jul-26 08:26N 40°50' E 014°16'1719.2
2014-Jul-26 07:33N 40°33' E 014°14'9 4.4
2014-Jul-26 05:33N 40°41' E 014°21'10 0.7
2014-Jul-25 15:17N 40°50' E 014°17'1722.2
2014-Jul-25 14:32N 40°33' E 014°14'0 0.0
2014-Jul-25 13:34N 40°33' E 014°14'0 0.0
2014-Jul-25 12:34N 40°33' E 014°14'0 0.1
2014-Jul-25 11:33N 40°33' E 014°14'17 7.3
2014-Jul-25 09:17N 40°50' E 014°17'1722.7
2014-Jul-25 08:33N 40°33' E 014°14'10 3.3
2014-Jul-25 05:33N 40°42' E 014°21'5 0.4
2014-Jul-24 17:26N 40°38' E 014°23'1314.3
2014-Jul-24 16:32N 40°50' E 014°17'1716.8
2014-Jul-24 15:33N 40°33' E 014°14'17 5.2
2014-Jul-24 12:23N 40°50' E 014°17'1720.0
2014-Jul-24 11:33N 40°33' E 014°14'0 0.0
2014-Jul-24 10:33N 40°33' E 014°14'0 0.0
2014-Jul-24 09:33N 40°33' E 014°14'1714.7
2014-Jul-24 08:25N 40°50' E 014°16'1719.3
2014-Jul-24 07:33N 40°33' E 014°14'10 4.8
2014-Jul-24 05:34N 40°42' E 014°20'5 0.4
2014-Jul-23 17:05N 40°38' E 014°23'7 4.9
2014-Jul-23 15:33N 40°44' E 014°17'1110.6
2014-Jul-23 14:33N 40°33' E 014°14'0 0.0
2014-Jul-23 13:33N 40°33' E 014°14'7 6.7
2014-Jul-23 12:33N 40°38' E 014°21'7 6.7
2014-Jul-23 11:33N 40°33' E 014°14'0 0.0
2014-Jul-23 10:34N 40°33' E 014°14'17 7.8
2014-Jul-23 08:26N 40°50' E 014°16'1719.2
2014-Jul-23 07:33N 40°33' E 014°14'10 4.8
2014-Jul-23 05:33N 40°42' E 014°20'4 0.4
2014-Jul-22 17:04N 40°38' E 014°23'8 5.1
2014-Jul-22 15:34N 40°44' E 014°16'10 9.8
2014-Jul-22 14:29N 40°33' E 014°14'17 8.0
2014-Jul-22 12:25N 40°50' E 014°17'1716.6
2014-Jul-22 11:25N 40°33' E 014°14'0 0.0
2014-Jul-22 10:33N 40°33' E 014°14'0 0.0
2014-Jul-22 09:33N 40°33' E 014°14'1714.0
2014-Jul-22 08:22N 40°50' E 014°16'1720.2
2014-Jul-22 07:32N 40°33' E 014°14'10 5.0
2014-Jul-22 05:33N 40°42' E 014°20'5 0.4
2014-Jul-21 17:07N 40°38' E 014°23'7 1.1
2014-Jul-21 10:33N 40°45' E 014°20'1111.1
2014-Jul-21 09:34N 40°35' E 014°16'2 1.5
2014-Jul-21 08:33N 40°33' E 014°14'0 0.0
2014-Jul-21 07:33N 40°33' E 014°14'10 5.0
2014-Jul-21 05:34N 40°42' E 014°20'5 4.8
2014-Jul-21 04:33N 40°38' E 014°23'0 0.0
2014-Jul-20 17:06N 40°38' E 014°23'1323.2
2014-Jul-20 16:33N 40°50' E 014°17'1 1.2
2014-Jul-20 15:33N 40°50' E 014°15'1616.0
2014-Jul-20 14:33N 40°34' E 014°15'1 1.0
2014-Jul-20 13:33N 40°33' E 014°14'1716.7
2014-Jul-20 12:33N 40°50' E 014°15'0 0.0
2014-Jul-20 11:33N 40°50' E 014°15'1716.1
2014-Jul-20 10:31N 40°33' E 014°14'0 0.0
2014-Jul-20 09:33N 40°33' E 014°14'1713.4
2014-Jul-20 08:18N 40°50' E 014°16'1722.6
2014-Jul-20 07:33N 40°33' E 014°14'8 0.5
2014-Jul-19 17:07N 40°38' E 014°23'1413.2
2014-Jul-19 16:05N 40°50' E 014°15'611.7
2014-Jul-19 15:34N 40°44' E 014°17'1110.9
2014-Jul-19 14:33N 40°33' E 014°14'17 8.1
2014-Jul-19 12:27N 40°51' E 014°16'0 0.0
2014-Jul-19 11:33N 40°51' E 014°16'1 0.2
2014-Jul-19 08:23N 40°50' E 014°17'1719.7
2014-Jul-19 07:32N 40°33' E 014°14'10 5.1
2014-Jul-19 05:34N 40°42' E 014°21'5 0.4
2014-Jul-18 18:27N 40°38' E 014°23'  
Track history (hours):
 
Tides and Currents Weather Stations Pressure Air Temp Water Temp Dewpoint Dewpoint Depression Visibility Wind Speed Wind Dir Waves Ship Positions

Napoli Jet

Last reported at 2014-Jul-28 17:09 UTC. Time now 2014-Jul-28 22:30 UTC.
Position N 40°38' E 014°23'.

Length 41 m; draft 1.3 m.

Type: Ship. MMSI: 247051400.

Date/timePositionNaut miles runAvg speedWind from/ knotsBaromVisibWave heightAir tempDewpointWater temp
2014-Jul-28 17:09N 40°38' E 014°23'7 4.7
2014-Jul-28 15:33N 40°44' E 014°16'10 9.9
2014-Jul-28 14:34N 40°34' E 014°15'1 0.9
2014-Jul-28 13:33N 40°33' E 014°14'0 0.0
2014-Jul-28 12:33N 40°33' E 014°14'0 0.5
2014-Jul-28 11:33N 40°34' E 014°15'1613.7
2014-Jul-28 10:21N 40°50' E 014°17'1720.8
2014-Jul-28 09:33N 40°33' E 014°14'0 0.0
2014-Jul-28 08:33N 40°33' E 014°14'10 3.2
2014-Jul-28 05:33N 40°42' E 014°21'4 0.3
2014-Jul-27 17:04N 40°38' E 014°23'13 7.6
2014-Jul-27 15:21N 40°50' E 014°17'1721.1
2014-Jul-27 14:33N 40°33' E 014°14'0 0.0
2014-Jul-27 13:33N 40°33' E 014°14'8 7.6
2014-Jul-27 12:33N 40°38' E 014°23'8 7.5
2014-Jul-27 11:33N 40°33' E 014°14'0 0.0
2014-Jul-27 10:34N 40°33' E 014°14'0 0.0
2014-Jul-27 09:33N 40°33' E 014°14'1712.9
2014-Jul-27 08:17N 40°50' E 014°17'1723.0
2014-Jul-27 07:33N 40°33' E 014°14'10 5.0
2014-Jul-27 05:33N 40°42' E 014°20'5 0.4
2014-Jul-26 17:03N 40°38' E 014°23'8 5.4
2014-Jul-26 15:33N 40°44' E 014°17'1110.9
2014-Jul-26 14:33N 40°33' E 014°14'17 7.8
2014-Jul-26 12:24N 40°50' E 014°16'1719.8
2014-Jul-26 11:34N 40°33' E 014°14'0 0.0
2014-Jul-26 10:34N 40°33' E 014°14'0 0.0
2014-Jul-26 09:34N 40°33' E 014°14'1714.8
2014-Jul-26 08:26N 40°50' E 014°16'1719.2
2014-Jul-26 07:33N 40°33' E 014°14'9 4.4
2014-Jul-26 05:33N 40°41' E 014°21'10 0.7
2014-Jul-25 15:17N 40°50' E 014°17'1722.2
2014-Jul-25 14:32N 40°33' E 014°14'0 0.0
2014-Jul-25 13:34N 40°33' E 014°14'0 0.0
2014-Jul-25 12:34N 40°33' E 014°14'0 0.1
2014-Jul-25 11:33N 40°33' E 014°14'17 7.3
2014-Jul-25 09:17N 40°50' E 014°17'1722.7
2014-Jul-25 08:33N 40°33' E 014°14'10 3.3
2014-Jul-25 05:33N 40°42' E 014°21'5 0.4
2014-Jul-24 17:26N 40°38' E 014°23'1314.3
2014-Jul-24 16:32N 40°50' E 014°17'1716.8
2014-Jul-24 15:33N 40°33' E 014°14'17 5.2
2014-Jul-24 12:23N 40°50' E 014°17'1720.0
2014-Jul-24 11:33N 40°33' E 014°14'0 0.0
2014-Jul-24 10:33N 40°33' E 014°14'0 0.0
2014-Jul-24 09:33N 40°33' E 014°14'1714.7
2014-Jul-24 08:25N 40°50' E 014°16'1719.3
2014-Jul-24 07:33N 40°33' E 014°14'10 4.8
2014-Jul-24 05:34N 40°42' E 014°20'5 0.4
2014-Jul-23 17:05N 40°38' E 014°23'7 4.9
2014-Jul-23 15:33N 40°44' E 014°17'1110.6
2014-Jul-23 14:33N 40°33' E 014°14'0 0.0
2014-Jul-23 13:33N 40°33' E 014°14'7 6.7
2014-Jul-23 12:33N 40°38' E 014°21'7 6.7
2014-Jul-23 11:33N 40°33' E 014°14'0 0.0
2014-Jul-23 10:34N 40°33' E 014°14'17 7.8
2014-Jul-23 08:26N 40°50' E 014°16'1719.2
2014-Jul-23 07:33N 40°33' E 014°14'10 4.8
2014-Jul-23 05:33N 40°42' E 014°20'4 0.4
2014-Jul-22 17:04N 40°38' E 014°23'8 5.1
2014-Jul-22 15:34N 40°44' E 014°16'10 9.8
2014-Jul-22 14:29N 40°33' E 014°14'17 8.0
2014-Jul-22 12:25N 40°50' E 014°17'1716.6
2014-Jul-22 11:25N 40°33' E 014°14'0 0.0
2014-Jul-22 10:33N 40°33' E 014°14'0 0.0
2014-Jul-22 09:33N 40°33' E 014°14'1714.0
2014-Jul-22 08:22N 40°50' E 014°16'1720.2
2014-Jul-22 07:32N 40°33' E 014°14'10 5.0
2014-Jul-22 05:33N 40°42' E 014°20'5 0.4
2014-Jul-21 17:07N 40°38' E 014°23'7 1.1
2014-Jul-21 10:33N 40°45' E 014°20'1111.1
2014-Jul-21 09:34N 40°35' E 014°16'2 1.5
2014-Jul-21 08:33N 40°33' E 014°14'0 0.0
2014-Jul-21 07:33N 40°33' E 014°14'10 5.0
2014-Jul-21 05:34N 40°42' E 014°20'5 4.8
2014-Jul-21 04:33N 40°38' E 014°23'0 0.0
2014-Jul-20 17:06N 40°38' E 014°23'1323.2
2014-Jul-20 16:33N 40°50' E 014°17'1 1.2
2014-Jul-20 15:33N 40°50' E 014°15'1616.0
2014-Jul-20 14:33N 40°34' E 014°15'1 1.0
2014-Jul-20 13:33N 40°33' E 014°14'1716.7
2014-Jul-20 12:33N 40°50' E 014°15'0 0.0
2014-Jul-20 11:33N 40°50' E 014°15'1716.1
2014-Jul-20 10:31N 40°33' E 014°14'0 0.0
2014-Jul-20 09:33N 40°33' E 014°14'1713.4
2014-Jul-20 08:18N 40°50' E 014°16'1722.6
2014-Jul-20 07:33N 40°33' E 014°14'8 0.5
2014-Jul-19 17:07N 40°38' E 014°23'1413.2
2014-Jul-19 16:05N 40°50' E 014°15'611.7
2014-Jul-19 15:34N 40°44' E 014°17'1110.9
2014-Jul-19 14:33N 40°33' E 014°14'17 8.1
2014-Jul-19 12:27N 40°51' E 014°16'0 0.0
2014-Jul-19 11:33N 40°51' E 014°16'1 0.2
2014-Jul-19 08:23N 40°50' E 014°17'1719.7
2014-Jul-19 07:32N 40°33' E 014°14'10 5.1
2014-Jul-19 05:34N 40°42' E 014°21'5 0.4
2014-Jul-18 18:27N 40°38' E 014°23'  

Dump ship's entire track history